createdAt,value
2023-03-12T00:00:56.918Z,82.35
2023-03-12T00:03:35.424Z,82.21
2023-03-12T00:06:10.541Z,82.35
2023-03-12T00:08:39.927Z,82.23
2023-03-12T00:11:10.562Z,82.47
2023-03-12T00:13:39.070Z,82.34
2023-03-12T00:16:09.744Z,81.91
2023-03-12T00:18:37.620Z,81.62
2023-03-12T00:21:06.023Z,81.74
2023-03-12T00:23:34.135Z,80.73
2023-03-12T00:26:07.029Z,81.04
2023-03-12T00:28:35.583Z,81.27
2023-03-12T00:31:27.850Z,81.52
2023-03-12T00:33:56.163Z,81.24
2023-03-12T00:36:26.590Z,81.66
2023-03-12T00:38:55.219Z,81.58
2023-03-12T00:41:24.082Z,81.74
2023-03-12T00:43:52.392Z,81.51
2023-03-12T00:46:21.216Z,81.61
2023-03-12T00:48:48.861Z,81.91
2023-03-12T00:51:16.500Z,81.56
2023-03-12T00:53:44.479Z,80.41
2023-03-12T00:56:12.091Z,79.65
2023-03-12T00:58:39.722Z,80.19
2023-03-12T01:01:07.378Z,79.92
2023-03-12T01:03:34.961Z,80.11
2023-03-12T01:06:02.527Z,80.06
2023-03-12T01:08:30.562Z,80.42
2023-03-12T01:10:58.160Z,80.51
2023-03-12T01:13:25.798Z,80.28
2023-03-12T01:15:53.366Z,80.11
2023-03-12T01:18:21.112Z,79.68
2023-03-12T01:20:48.751Z,79.51
2023-03-12T01:23:16.401Z,79.90
2023-03-12T01:25:43.962Z,80.06
2023-03-12T01:28:11.556Z,79.85
2023-03-12T01:30:39.172Z,80.12
2023-03-12T01:33:06.747Z,80.43
2023-03-12T01:35:38.762Z,80.29
2023-03-12T01:38:13.709Z,80.66
2023-03-12T01:40:43.180Z,80.33
2023-03-12T01:43:29.499Z,80.41
2023-03-12T01:46:15.868Z,80.76
2023-03-12T01:48:48.452Z,80.96
2023-03-12T01:51:18.682Z,81.24
2023-03-12T01:53:49.677Z,81.03
2023-03-12T01:56:19.573Z,81.30
2023-03-12T01:58:52.818Z,81.77
2023-03-12T02:01:22.183Z,81.69
2023-03-12T02:03:53.758Z,81.82
2023-03-12T02:06:29.285Z,81.80
2023-03-12T02:09:00.605Z,81.93
2023-03-12T02:11:28.296Z,81.91
2023-03-12T02:13:55.942Z,81.85
2023-03-12T02:16:23.640Z,82.05
2023-03-12T02:18:54.594Z,82.29
2023-03-12T02:21:24.881Z,82.28
2023-03-12T02:24:14.105Z,82.32
2023-03-12T02:26:42.472Z,82.44
2023-03-12T02:29:11.253Z,82.42
2023-03-12T02:31:44.649Z,82.74
2023-03-12T02:34:12.312Z,82.86
2023-03-12T02:36:40.383Z,82.91
2023-03-12T02:39:09.537Z,83.26
2023-03-12T02:41:44.667Z,83.32
2023-03-12T02:44:16.593Z,83.81
2023-03-12T02:46:50.092Z,83.94
2023-03-12T02:49:19.971Z,84.10
2023-03-12T02:51:48.006Z,84.06
2023-03-12T02:54:17.694Z,84.26
2023-03-12T02:56:45.619Z,84.36
2023-03-12T02:59:13.464Z,84.48
2023-03-12T03:01:41.922Z,84.48
2023-03-12T03:04:11.034Z,84.63
2023-03-12T03:06:43.234Z,84.68
2023-03-12T03:09:10.918Z,84.84
2023-03-12T03:11:38.528Z,84.90
2023-03-12T03:14:06.149Z,85.24
2023-03-12T03:16:34.540Z,85.30
2023-03-12T03:19:02.301Z,85.30
2023-03-12T03:21:29.987Z,85.43
2023-03-12T03:23:57.633Z,85.39
2023-03-12T03:26:25.645Z,85.83
2023-03-12T03:28:53.606Z,85.89
2023-03-12T03:31:21.776Z,86.07
2023-03-12T03:33:49.579Z,86.42
2023-03-12T03:36:17.388Z,87.01
2023-03-12T03:38:45.386Z,87.12
2023-03-12T03:41:12.945Z,87.43
2023-03-12T03:43:40.512Z,87.75
2023-03-12T03:46:08.133Z,87.49
2023-03-12T03:48:35.727Z,87.61
2023-03-12T03:51:05.548Z,87.69
2023-03-12T03:53:33.648Z,88.07
2023-03-12T03:56:13.703Z,87.82
2023-03-12T03:58:41.799Z,87.82
2023-03-12T04:01:09.467Z,87.59
2023-03-12T04:03:37.124Z,87.78
2023-03-12T04:06:06.361Z,87.87
2023-03-12T04:08:35.730Z,87.91
2023-03-12T04:11:15.863Z,88.00
2023-03-12T04:13:43.778Z,88.03
2023-03-12T04:16:12.189Z,87.98
2023-03-12T04:18:40.133Z,88.16
2023-03-12T04:21:10.806Z,88.00
2023-03-12T04:23:38.884Z,88.00
2023-03-12T04:26:07.502Z,88.24
2023-03-12T04:28:36.174Z,88.25
2023-03-12T04:31:06.235Z,88.05
2023-03-12T04:33:36.583Z,88.01
2023-03-12T04:36:04.726Z,88.10
2023-03-12T04:38:32.333Z,88.03
2023-03-12T04:41:08.436Z,88.10
2023-03-12T04:43:36.130Z,88.08
2023-03-12T04:46:04.233Z,87.95
2023-03-12T04:48:32.582Z,87.76
2023-03-12T04:51:00.161Z,87.85
2023-03-12T04:53:27.856Z,88.07
2023-03-12T04:55:55.628Z,87.80
2023-03-12T04:58:23.224Z,87.76
2023-03-12T05:00:51.345Z,87.65
2023-03-12T05:03:19.228Z,87.57
2023-03-12T05:05:47.007Z,87.59
2023-03-12T05:08:14.647Z,87.47
2023-03-12T05:10:42.307Z,87.35
2023-03-12T05:13:17.765Z,87.04
2023-03-12T05:15:46.475Z,87.18
2023-03-12T05:18:14.400Z,86.83
2023-03-12T05:20:42.164Z,86.51
2023-03-12T05:23:09.752Z,86.53
2023-03-12T05:25:41.283Z,86.52
2023-03-12T05:28:09.166Z,86.28
2023-03-12T05:30:36.728Z,86.11
2023-03-12T05:33:04.298Z,85.67
2023-03-12T05:35:31.994Z,85.28
2023-03-12T05:37:59.609Z,85.02
2023-03-12T05:40:27.166Z,85.01
2023-03-12T05:42:54.763Z,85.03
2023-03-12T05:45:22.396Z,84.79
2023-03-12T05:47:49.984Z,84.31
2023-03-12T05:50:17.642Z,84.17
2023-03-12T05:52:45.224Z,84.09
2023-03-12T05:55:12.819Z,83.70
2023-03-12T05:57:40.411Z,83.22
2023-03-12T06:00:09.032Z,82.86
2023-03-12T06:02:36.667Z,82.97
2023-03-12T06:05:04.938Z,82.98
2023-03-12T06:07:32.504Z,82.66
2023-03-12T06:10:00.087Z,82.16
2023-03-12T06:12:27.665Z,81.98
2023-03-12T06:14:55.230Z,81.48
2023-03-12T06:17:22.926Z,81.46
2023-03-12T06:19:51.568Z,81.30
2023-03-12T06:22:19.586Z,81.20
2023-03-12T06:24:47.396Z,80.30
2023-03-12T06:27:15.102Z,79.80
2023-03-12T06:29:42.947Z,79.92
2023-03-12T06:32:10.503Z,78.96
2023-03-12T06:34:38.211Z,78.84
2023-03-12T06:37:06.012Z,77.90
2023-03-12T06:39:33.569Z,77.67
2023-03-12T06:42:01.356Z,77.04
2023-03-12T06:44:29.132Z,75.96
2023-03-12T06:46:57.104Z,75.78
2023-03-12T06:49:24.945Z,75.29
2023-03-12T06:51:53.658Z,74.86
2023-03-12T06:54:21.481Z,74.38
2023-03-12T06:56:49.361Z,74.07
2023-03-12T06:59:17.243Z,72.59
2023-03-12T07:01:44.777Z,71.99
2023-03-12T07:04:12.318Z,71.79
2023-03-12T07:06:39.960Z,71.72
2023-03-12T07:09:07.957Z,71.11
2023-03-12T07:11:35.756Z,71.88
2023-03-12T07:14:03.450Z,71.02
2023-03-12T07:16:31.453Z,71.34
2023-03-12T07:18:59.394Z,71.13
2023-03-12T07:21:27.432Z,71.77
2023-03-12T07:23:55.532Z,70.67
2023-03-12T07:26:23.525Z,70.33
2023-03-12T07:28:51.264Z,69.73
2023-03-12T07:31:19.174Z,69.24
2023-03-12T07:33:47.191Z,69.18
2023-03-12T07:36:15.042Z,67.94
2023-03-12T07:38:42.717Z,68.27
2023-03-12T07:41:10.643Z,68.22
2023-03-12T07:43:38.276Z,68.97
2023-03-12T07:46:06.092Z,69.25
2023-03-12T07:48:33.889Z,68.70
2023-03-12T07:51:01.790Z,69.08
2023-03-12T07:53:29.618Z,68.83
2023-03-12T07:55:57.749Z,68.40
2023-03-12T07:58:25.603Z,68.62
2023-03-12T08:00:55.548Z,68.33
2023-03-12T08:03:23.352Z,67.50
2023-03-12T08:06:02.109Z,67.39
2023-03-12T08:08:31.003Z,67.59
2023-03-12T08:11:00.406Z,66.50
2023-03-12T08:13:28.403Z,66.80
2023-03-12T08:15:56.356Z,66.77
2023-03-12T08:18:24.890Z,66.41
2023-03-12T08:20:54.117Z,66.21
2023-03-12T08:23:22.566Z,65.96
2023-03-12T08:25:51.296Z,65.64
2023-03-12T08:28:20.256Z,65.06
2023-03-12T08:30:50.143Z,65.49
2023-03-12T08:33:18.091Z,65.71
2023-03-12T08:35:46.287Z,65.09
2023-03-12T08:38:14.232Z,64.81
2023-03-12T08:40:42.275Z,64.57
2023-03-12T08:43:10.067Z,65.53
2023-03-12T08:45:37.799Z,65.53
2023-03-12T08:48:07.196Z,64.05
2023-03-12T08:50:35.116Z,64.13
2023-03-12T08:53:02.923Z,63.30
2023-03-12T08:55:30.501Z,63.41
2023-03-12T08:57:58.189Z,63.62
2023-03-12T09:00:26.081Z,61.67
2023-03-12T09:02:54.077Z,62.16
2023-03-12T09:05:21.696Z,62.86
2023-03-12T09:07:49.618Z,62.75
2023-03-12T09:10:18.013Z,62.98
2023-03-12T09:12:45.905Z,61.52
2023-03-12T09:15:13.850Z,61.42
2023-03-12T09:17:41.649Z,61.79
2023-03-12T09:20:11.012Z,60.25
2023-03-12T09:22:38.613Z,60.41
2023-03-12T09:25:08.299Z,59.73
2023-03-12T09:27:44.178Z,58.78
2023-03-12T09:30:18.783Z,58.47
2023-03-12T09:32:47.588Z,57.69
2023-03-12T09:35:16.460Z,58.06
2023-03-12T09:37:48.395Z,59.45
2023-03-12T09:40:19.622Z,58.08
2023-03-12T09:42:53.418Z,58.16
2023-03-12T09:45:27.093Z,57.38
2023-03-12T09:48:01.474Z,57.53
2023-03-12T09:50:35.988Z,57.02
2023-03-12T09:53:24.015Z,55.83
2023-03-12T09:55:54.409Z,54.43
2023-03-12T09:58:25.491Z,53.75
2023-03-12T10:01:34.837Z,52.59
2023-03-12T10:04:17.608Z,53.04
2023-03-12T10:06:47.243Z,50.93
2023-03-12T10:09:54.509Z,51.01
2023-03-12T10:12:47.683Z,50.23
2023-03-12T10:15:44.577Z,48.56
2023-03-12T10:18:30.093Z,48.14
2023-03-12T10:21:08.173Z,49.02
2023-03-12T10:23:53.401Z,46.63
2023-03-12T10:26:30.044Z,45.31
2023-03-12T10:29:02.132Z,46.53
2023-03-12T10:31:36.226Z,47.65
2023-03-12T10:34:16.685Z,46.23
2023-03-12T10:36:45.864Z,46.67
2023-03-12T10:39:19.852Z,45.02
2023-03-12T10:41:48.672Z,46.34
2023-03-12T10:44:22.113Z,46.96
2023-03-12T10:46:59.290Z,48.45
2023-03-12T10:49:30.656Z,48.44
2023-03-12T10:52:19.814Z,49.09
2023-03-12T10:54:50.524Z,49.75
2023-03-12T10:57:19.761Z,50.94
2023-03-12T10:59:48.884Z,50.48
2023-03-12T11:02:34.116Z,48.34
2023-03-12T11:05:18.304Z,48.39
2023-03-12T11:07:46.332Z,48.98
2023-03-12T11:10:26.672Z,49.64
2023-03-12T11:13:23.728Z,49.63
2023-03-12T11:15:52.226Z,47.40
2023-03-12T11:18:29.423Z,48.26
2023-03-12T11:21:12.830Z,48.41
2023-03-12T11:23:44.591Z,44.57
2023-03-12T11:26:18.224Z,44.54
2023-03-12T11:28:52.288Z,46.12
2023-03-12T11:31:28.399Z,47.03
2023-03-12T11:33:59.977Z,47.33
2023-03-12T11:36:54.478Z,46.89
2023-03-12T11:39:42.030Z,46.71
2023-03-12T11:42:37.266Z,43.82
2023-03-12T11:45:27.096Z,40.84
2023-03-12T11:48:23.989Z,41.29
2023-03-12T11:51:00.564Z,42.68
2023-03-12T11:53:46.051Z,43.27
2023-03-12T11:56:29.312Z,42.81
2023-03-12T11:58:59.615Z,38.16
2023-03-12T12:01:54.902Z,35.42
2023-03-12T12:04:52.131Z,34.59
2023-03-12T12:07:49.253Z,34.49
2023-03-12T12:10:38.171Z,35.92
2023-03-12T12:13:18.083Z,35.21
2023-03-12T12:15:54.575Z,32.93
2023-03-12T12:19:02.202Z,30.91
2023-03-12T12:21:45.419Z,30.76
2023-03-12T12:24:35.980Z,29.26
2023-03-12T12:27:22.532Z,29.16
2023-03-12T12:30:14.753Z,27.78
2023-03-12T12:33:03.770Z,28.20
2023-03-12T12:35:39.597Z,30.63
2023-03-12T12:38:21.327Z,33.67
2023-03-12T12:40:55.754Z,33.81
2023-03-12T12:43:58.755Z,35.37
2023-03-12T12:46:32.392Z,32.00
2023-03-12T12:49:10.031Z,29.96
2023-03-12T12:51:43.973Z,26.79
2023-03-12T12:54:31.146Z,25.75
2023-03-12T12:57:19.924Z,26.76
2023-03-12T12:59:56.758Z,25.26
2023-03-12T13:02:27.728Z,27.10
2023-03-12T13:04:57.972Z,28.72
2023-03-12T13:07:27.856Z,29.20
2023-03-12T13:09:58.095Z,29.50
2023-03-12T13:12:49.849Z,28.69
2023-03-12T13:15:29.572Z,27.91
2023-03-12T13:18:22.620Z,27.84
2023-03-12T13:20:53.307Z,26.95
2023-03-12T13:23:41.703Z,27.33
2023-03-12T13:26:31.728Z,27.75
2023-03-12T13:29:19.937Z,27.28
2023-03-12T13:31:47.738Z,28.17
2023-03-12T13:34:18.338Z,29.70
2023-03-12T13:36:47.692Z,31.03
2023-03-12T13:39:15.208Z,32.03
2023-03-12T13:41:45.816Z,32.06
2023-03-12T13:44:27.437Z,33.29
2023-03-12T13:47:19.657Z,33.29
2023-03-12T13:49:55.763Z,33.09
2023-03-12T13:52:46.054Z,33.44
2023-03-12T13:55:13.560Z,34.68
2023-03-12T13:57:43.955Z,34.81
2023-03-12T14:00:18.939Z,34.68
2023-03-12T14:03:18.804Z,35.69
2023-03-12T14:05:55.556Z,36.38
2023-03-12T14:08:35.016Z,36.39
2023-03-12T14:11:14.572Z,36.25
2023-03-12T14:14:19.566Z,37.04
2023-03-12T14:16:51.254Z,36.15
2023-03-12T14:19:34.994Z,35.68
2023-03-12T14:22:06.567Z,35.80
2023-03-12T14:24:47.856Z,36.09
2023-03-12T14:27:21.571Z,36.82
2023-03-12T14:30:15.957Z,37.80
2023-03-12T14:32:45.963Z,38.43
2023-03-12T14:35:18.020Z,38.90
2023-03-12T14:37:58.101Z,38.83
2023-03-12T14:40:43.815Z,38.60
2023-03-12T14:43:22.706Z,38.75
2023-03-12T14:45:54.167Z,38.78
2023-03-12T14:48:24.234Z,39.29
2023-03-12T14:50:51.809Z,38.69
2023-03-12T14:53:24.698Z,39.98
2023-03-12T14:56:06.510Z,39.39
2023-03-12T14:58:41.540Z,39.45
2023-03-12T15:01:14.461Z,39.28
2023-03-12T15:03:46.211Z,39.56
2023-03-12T15:06:29.279Z,40.04
2023-03-12T15:08:58.186Z,40.48
2023-03-12T15:11:28.888Z,41.28
2023-03-12T15:14:21.763Z,41.47
2023-03-12T15:16:50.582Z,42.80
2023-03-12T15:19:27.516Z,43.54
2023-03-12T15:21:55.981Z,44.93
2023-03-12T15:24:24.530Z,45.31
2023-03-12T15:26:52.277Z,46.02
2023-03-12T15:29:24.359Z,46.13
2023-03-12T15:31:58.102Z,46.90
2023-03-12T15:34:33.501Z,47.44
2023-03-12T15:37:03.702Z,48.24
2023-03-12T15:39:32.374Z,47.59
2023-03-12T15:42:02.876Z,47.70
2023-03-12T15:44:44.995Z,46.88
2023-03-12T15:47:33.125Z,45.42
2023-03-12T15:50:05.994Z,45.47
2023-03-12T15:52:35.882Z,45.95
2023-03-12T15:55:06.441Z,45.94
2023-03-12T15:57:34.662Z,45.43
2023-03-12T16:00:11.258Z,45.77
2023-03-12T16:02:46.969Z,46.02
2023-03-12T16:05:14.874Z,46.60
2023-03-12T16:07:42.538Z,47.36
2023-03-12T16:10:14.421Z,48.06
2023-03-12T16:12:44.689Z,48.43
2023-03-12T16:15:24.729Z,48.80
2023-03-12T16:17:52.378Z,48.69
2023-03-12T16:20:20.088Z,48.94
2023-03-12T16:22:47.810Z,49.18
2023-03-12T16:25:15.418Z,49.67
2023-03-12T16:27:50.937Z,50.03
2023-03-12T16:30:24.718Z,49.87
2023-03-12T16:32:52.371Z,50.56
2023-03-12T16:35:21.570Z,51.15
2023-03-12T16:37:49.377Z,50.75
2023-03-12T16:40:30.791Z,50.96
2023-03-12T16:43:03.132Z,51.47
2023-03-12T16:45:33.849Z,51.68
2023-03-12T16:48:05.326Z,51.72
2023-03-12T16:50:33.150Z,51.93
2023-03-12T16:53:02.948Z,51.87
2023-03-12T16:55:40.503Z,52.06
2023-03-12T16:58:13.252Z,52.11
2023-03-12T17:00:41.303Z,51.98
2023-03-12T17:03:18.640Z,52.04
2023-03-12T17:05:46.608Z,52.23
2023-03-12T17:08:15.083Z,52.50
2023-03-12T17:10:42.743Z,53.03
2023-03-12T17:13:19.418Z,53.43
2023-03-12T17:15:48.076Z,53.45
2023-03-12T17:18:18.309Z,53.72
2023-03-12T17:20:47.708Z,53.98
2023-03-12T17:23:15.561Z,54.21
2023-03-12T17:25:43.988Z,54.44
2023-03-12T17:28:12.449Z,54.75
2023-03-12T17:30:40.214Z,54.95
2023-03-12T17:33:11.580Z,55.22
2023-03-12T17:35:39.746Z,54.89
2023-03-12T17:38:08.562Z,54.28
2023-03-12T17:40:43.906Z,54.42
2023-03-12T17:43:11.989Z,54.35
2023-03-12T17:45:39.765Z,54.20
2023-03-12T17:48:07.535Z,54.42
2023-03-12T17:50:36.027Z,54.66
2023-03-12T17:53:03.878Z,54.26
2023-03-12T17:55:31.524Z,54.38
2023-03-12T17:57:59.094Z,54.45
2023-03-12T18:00:27.749Z,54.09
2023-03-12T18:02:55.873Z,53.60
2023-03-12T18:05:24.372Z,53.59
2023-03-12T18:07:52.284Z,53.51
2023-03-12T18:10:20.232Z,53.34
2023-03-12T18:12:48.007Z,52.86
2023-03-12T18:15:15.632Z,53.27
2023-03-12T18:17:44.259Z,52.94
2023-03-12T18:20:12.626Z,53.33
2023-03-12T18:22:41.834Z,53.75
2023-03-12T18:25:10.909Z,54.36
2023-03-12T18:27:38.972Z,53.88
2023-03-12T18:30:08.026Z,53.89
2023-03-12T18:32:35.785Z,53.82
2023-03-12T18:35:03.900Z,54.44
2023-03-12T18:37:31.458Z,54.50
2023-03-12T18:39:59.235Z,54.76
2023-03-12T18:42:27.061Z,54.92
2023-03-12T18:44:54.905Z,55.28
2023-03-12T18:47:23.164Z,55.30
2023-03-12T18:49:50.778Z,55.57
2023-03-12T18:52:18.610Z,55.67
2023-03-12T18:54:46.874Z,56.32
2023-03-12T18:57:14.742Z,56.54
2023-03-12T18:59:42.312Z,56.70
2023-03-12T19:02:10.516Z,56.49
2023-03-12T19:04:38.522Z,56.27
2023-03-12T19:07:07.536Z,55.82
2023-03-12T19:09:35.123Z,55.97
2023-03-12T19:12:02.984Z,56.24
2023-03-12T19:14:31.026Z,56.54
2023-03-12T19:16:58.797Z,56.45
2023-03-12T19:19:26.515Z,56.96
2023-03-12T19:21:54.255Z,56.98
2023-03-12T19:24:21.830Z,57.11
2023-03-12T19:26:49.475Z,56.83
2023-03-12T19:29:17.437Z,56.83
2023-03-12T19:31:45.138Z,56.62
2023-03-12T19:34:12.774Z,56.15
2023-03-12T19:36:40.451Z,56.16
2023-03-12T19:39:15.302Z,56.01
2023-03-12T19:41:48.118Z,56.08
2023-03-12T19:44:15.765Z,56.01
2023-03-12T19:46:43.760Z,56.16
2023-03-12T19:49:11.671Z,56.17
2023-03-12T19:51:39.280Z,56.60
2023-03-12T19:54:07.942Z,56.58
2023-03-12T19:56:35.590Z,56.96
2023-03-12T19:59:03.317Z,57.02
2023-03-12T20:01:30.948Z,56.96
2023-03-12T20:03:58.665Z,57.09
2023-03-12T20:06:26.245Z,56.88
2023-03-12T20:08:53.809Z,56.93
2023-03-12T20:11:21.408Z,57.23
2023-03-12T20:13:49.052Z,57.18
2023-03-12T20:16:16.825Z,57.54
2023-03-12T20:18:45.202Z,57.17
2023-03-12T20:21:13.007Z,57.25
2023-03-12T20:23:40.652Z,57.11
2023-03-12T20:26:08.327Z,56.82
2023-03-12T20:28:36.024Z,57.05
2023-03-12T20:31:11.391Z,56.86
2023-03-12T20:33:39.062Z,57.16
2023-03-12T20:36:12.853Z,56.74
2023-03-12T20:38:41.044Z,56.78
2023-03-12T20:41:13.187Z,56.00
2023-03-12T20:43:45.188Z,56.49
2023-03-12T20:46:13.280Z,55.90
2023-03-12T20:48:40.898Z,55.82
2023-03-12T20:51:08.469Z,55.88
2023-03-12T20:53:36.045Z,55.80
2023-03-12T20:56:06.514Z,55.54
2023-03-12T20:58:34.856Z,55.47
2023-03-12T21:01:04.463Z,56.33
2023-03-12T21:03:32.251Z,55.85
2023-03-12T21:06:01.798Z,56.44
2023-03-12T21:08:30.013Z,55.99
2023-03-12T21:10:57.573Z,56.21
2023-03-12T21:13:25.232Z,56.15
2023-03-12T21:15:52.878Z,55.98
2023-03-12T21:18:20.460Z,55.88
2023-03-12T21:20:48.346Z,56.25
2023-03-12T21:23:16.075Z,56.19
2023-03-12T21:25:43.724Z,55.35
2023-03-12T21:28:11.413Z,56.11
2023-03-12T21:30:39.026Z,55.90
2023-03-12T21:33:06.672Z,55.81
2023-03-12T21:35:34.412Z,56.24
2023-03-12T21:38:02.069Z,55.96
2023-03-12T21:40:29.670Z,55.42
2023-03-12T21:42:57.229Z,55.74
2023-03-12T21:45:24.819Z,56.30
2023-03-12T21:47:52.419Z,56.51
2023-03-12T21:50:20.277Z,56.02
2023-03-12T21:52:48.049Z,55.81
2023-03-12T21:55:16.855Z,56.20
2023-03-12T21:57:45.375Z,56.72
2023-03-12T22:00:13.569Z,56.71
2023-03-12T22:02:42.293Z,56.80
2023-03-12T22:05:11.456Z,56.90
2023-03-12T22:07:39.173Z,56.84
2023-03-12T22:10:08.655Z,56.25
2023-03-12T22:12:36.207Z,56.52
2023-03-12T22:15:05.430Z,56.27
2023-03-12T22:17:33.061Z,56.12
2023-03-12T22:20:00.612Z,55.88
2023-03-12T22:22:28.186Z,55.53
2023-03-12T22:24:55.735Z,54.91
2023-03-12T22:27:23.342Z,54.70
2023-03-12T22:29:51.017Z,55.13
2023-03-12T22:32:19.054Z,55.14
2023-03-12T22:34:46.708Z,55.51
2023-03-12T22:37:14.283Z,56.24
2023-03-12T22:39:41.905Z,56.28
2023-03-12T22:42:09.501Z,56.19
2023-03-12T22:44:41.464Z,56.52
2023-03-12T22:47:09.093Z,56.47
2023-03-12T22:49:36.636Z,56.88
2023-03-12T22:52:04.494Z,56.83
2023-03-12T22:54:32.013Z,56.90
2023-03-12T22:56:59.600Z,56.98
2023-03-12T22:59:27.159Z,56.83
2023-03-12T23:01:54.781Z,57.03
2023-03-12T23:04:22.442Z,56.95
2023-03-12T23:06:50.091Z,57.01
2023-03-12T23:09:17.717Z,57.42
2023-03-12T23:11:45.284Z,57.61
2023-03-12T23:14:12.895Z,58.03
2023-03-12T23:16:40.628Z,58.54
2023-03-12T23:19:08.194Z,59.22
2023-03-12T23:21:35.780Z,59.60
2023-03-12T23:24:03.602Z,59.68
2023-03-12T23:26:31.224Z,60.16
2023-03-12T23:28:59.294Z,60.72
2023-03-12T23:31:29.061Z,61.29
2023-03-12T23:33:56.764Z,61.57
2023-03-12T23:36:24.819Z,61.58
2023-03-12T23:38:52.585Z,61.78
2023-03-12T23:41:25.744Z,61.84
2023-03-12T23:43:53.318Z,62.45
2023-03-12T23:46:21.295Z,62.37
2023-03-12T23:48:49.596Z,62.61
2023-03-12T23:51:20.341Z,62.89
2023-03-12T23:53:50.399Z,62.92
2023-03-12T23:56:20.303Z,63.16
2023-03-12T23:58:49.664Z,63.28
